createdAt,value
2023-03-26T00:00:04.797Z,293.3077
2023-03-26T00:01:06.431Z,288.6923
2023-03-26T00:02:08.255Z,291.6154
2023-03-26T00:03:09.703Z,292.2308
2023-03-26T00:04:11.468Z,295.6154
2023-03-26T00:05:13.102Z,297.6923
2023-03-26T00:06:14.664Z,298.8462
2023-03-26T00:07:16.403Z,295.6154
2023-03-26T00:08:18.068Z,295.6923
2023-03-26T00:09:19.578Z,295.4615
2023-03-26T00:10:21.365Z,295.0769
2023-03-26T00:11:22.937Z,294.7692
2023-03-26T00:12:24.584Z,299.5385
2023-03-26T00:13:26.231Z,296.1538
2023-03-26T00:14:27.862Z,295.2308
2023-03-26T00:15:29.484Z,290.3846
2023-03-26T00:16:31.197Z,300.4615
2023-03-26T00:17:32.830Z,298.4615
2023-03-26T00:18:34.504Z,299.5385
2023-03-26T00:19:36.090Z,298.0769
2023-03-26T00:20:37.740Z,295.6154
2023-03-26T00:21:39.394Z,295.8462
2023-03-26T00:22:41.109Z,298.6154
2023-03-26T00:23:42.671Z,295.8462
2023-03-26T00:24:44.339Z,295.3846
2023-03-26T00:25:46.771Z,297.8462
2023-03-26T00:26:47.648Z,295.3846
2023-03-26T00:27:49.294Z,299.0000
2023-03-26T00:28:50.953Z,297.2308
2023-03-26T00:29:52.563Z,299.7692
2023-03-26T00:30:54.279Z,299.3077
2023-03-26T00:31:55.871Z,299.0769
2023-03-26T00:32:57.570Z,301.9231
2023-03-26T00:33:59.161Z,297.1538
2023-03-26T00:35:00.845Z,296.6923
2023-03-26T00:36:04.397Z,298.3846
2023-03-26T00:37:04.125Z,299.9231
2023-03-26T00:38:05.776Z,299.8462
2023-03-26T00:39:07.417Z,301.3077
2023-03-26T00:40:09.040Z,301.6923
2023-03-26T00:41:10.712Z,298.6154
2023-03-26T00:42:12.342Z,300.6923
2023-03-26T00:43:14.019Z,298.5385
2023-03-26T00:44:15.643Z,301.9231
2023-03-26T00:45:17.304Z,300.8462
2023-03-26T00:46:18.998Z,298.8462
2023-03-26T00:47:20.761Z,299.0000
2023-03-26T00:48:28.846Z,300.0769
2023-03-26T00:49:23.890Z,299.9231
2023-03-26T00:50:25.529Z,304.8462
2023-03-26T00:51:27.218Z,304.6923
2023-03-26T00:52:28.833Z,302.6923
2023-03-26T00:53:30.667Z,303.2308
2023-03-26T00:54:32.142Z,302.4615
2023-03-26T00:55:33.805Z,302.2308
2023-03-26T00:56:35.476Z,300.4615
2023-03-26T00:57:37.185Z,302.0000
2023-03-26T00:58:38.751Z,303.2308
2023-03-26T00:59:40.403Z,300.3077
2023-03-26T01:00:42.034Z,301.2308
2023-03-26T01:01:43.726Z,301.6923
2023-03-26T01:02:45.435Z,302.9231
2023-03-26T01:04:04.830Z,306.6154
2023-03-26T01:04:48.759Z,302.9231
2023-03-26T01:05:50.303Z,304.6923
2023-03-26T01:06:51.916Z,301.5385
2023-03-26T01:07:53.590Z,305.6923
2023-03-26T01:08:55.251Z,303.6154
2023-03-26T01:09:56.871Z,305.3846
2023-03-26T01:10:58.514Z,303.1538
2023-03-26T01:12:00.181Z,303.6923
2023-03-26T01:13:01.812Z,304.6923
2023-03-26T01:14:03.502Z,307.8462
2023-03-26T01:15:05.124Z,307.3077
2023-03-26T01:16:06.822Z,307.3077
2023-03-26T01:17:08.405Z,309.1538
2023-03-26T01:18:10.092Z,305.5385
2023-03-26T01:19:11.721Z,307.0000
2023-03-26T01:20:13.376Z,308.0000
2023-03-26T01:21:15.000Z,311.7692
2023-03-26T01:22:16.687Z,307.0000
2023-03-26T01:23:18.326Z,308.8462
2023-03-26T01:24:20.001Z,310.6923
2023-03-26T01:25:21.604Z,311.6154
2023-03-26T01:26:23.261Z,305.8462
2023-03-26T01:27:24.902Z,309.2308
2023-03-26T01:28:26.573Z,312.0769
2023-03-26T01:29:28.242Z,309.1538
2023-03-26T01:30:29.869Z,311.3846
2023-03-26T01:31:31.483Z,311.6923
2023-03-26T01:32:33.321Z,313.2308
2023-03-26T01:33:34.855Z,312.9231
2023-03-26T01:34:36.502Z,312.2308
2023-03-26T01:35:38.118Z,311.6154
2023-03-26T01:36:39.765Z,310.6923
2023-03-26T01:37:41.381Z,314.8462
2023-03-26T01:38:43.060Z,310.3077
2023-03-26T01:39:44.713Z,314.5385
2023-03-26T01:40:46.351Z,311.6923
2023-03-26T01:41:47.986Z,321.2308
2023-03-26T01:42:49.661Z,324.8462
2023-03-26T01:43:51.289Z,315.0000
2023-03-26T01:44:52.978Z,312.7692
2023-03-26T01:45:54.738Z,315.5385
2023-03-26T01:46:56.339Z,315.2308
2023-03-26T01:47:57.905Z,316.0000
2023-03-26T01:48:59.532Z,317.6154
2023-03-26T01:50:01.207Z,328.3077
2023-03-26T01:51:02.838Z,319.0769
2023-03-26T01:52:04.470Z,318.7692
2023-03-26T01:53:06.143Z,326.0000
2023-03-26T01:54:07.840Z,321.3846
2023-03-26T01:55:09.533Z,325.6923
2023-03-26T01:56:11.172Z,316.0000
2023-03-26T01:57:12.822Z,320.0769
2023-03-26T01:58:14.439Z,325.0769
2023-03-26T01:59:16.117Z,322.3846
2023-03-26T02:00:17.777Z,319.2308
2023-03-26T02:01:19.481Z,324.5385
2023-03-26T02:02:21.173Z,319.6923
2023-03-26T02:03:22.854Z,325.9231
2023-03-26T02:04:24.362Z,329.0000
2023-03-26T02:05:26.063Z,324.2308
2023-03-26T02:06:27.652Z,326.5385
2023-03-26T02:07:29.328Z,331.3846
2023-03-26T02:08:30.963Z,326.4615
2023-03-26T02:09:32.614Z,322.7692
2023-03-26T02:10:34.270Z,322.4615
2023-03-26T02:11:36.224Z,323.7692
2023-03-26T02:12:37.544Z,329.6154
2023-03-26T02:13:39.217Z,327.7692
2023-03-26T02:14:40.862Z,328.1538
2023-03-26T02:15:42.541Z,331.0000
2023-03-26T02:16:44.166Z,324.7692
2023-03-26T02:17:45.827Z,326.3846
2023-03-26T02:18:47.498Z,328.3846
2023-03-26T02:19:49.125Z,323.6154
2023-03-26T02:20:50.773Z,326.6923
2023-03-26T02:21:52.408Z,338.6923
2023-03-26T02:22:54.043Z,330.9231
2023-03-26T02:23:55.715Z,332.6923
2023-03-26T02:24:57.349Z,325.0000
2023-03-26T02:25:59.043Z,331.6923
2023-03-26T02:27:00.642Z,327.2308
2023-03-26T02:28:02.304Z,328.8462
2023-03-26T02:29:03.941Z,338.0000
2023-03-26T02:30:05.606Z,329.3077
2023-03-26T02:31:07.274Z,329.9231
2023-03-26T02:32:08.909Z,332.6154
2023-03-26T02:33:10.591Z,335.9231
2023-03-26T02:34:12.220Z,331.2308
2023-03-26T02:35:13.894Z,325.6923
2023-03-26T02:36:15.601Z,331.6923
2023-03-26T02:37:17.145Z,333.3846
2023-03-26T02:38:18.775Z,336.0000
2023-03-26T02:39:20.445Z,337.0769
2023-03-26T02:40:22.096Z,334.7692
2023-03-26T02:41:23.749Z,336.2308
2023-03-26T02:42:25.385Z,328.8462
2023-03-26T02:43:27.019Z,332.6154
2023-03-26T02:44:28.680Z,336.0769
2023-03-26T02:45:30.315Z,331.9231
2023-03-26T02:46:32.054Z,332.6154
2023-03-26T02:47:33.692Z,334.1538
2023-03-26T02:48:35.271Z,333.3846
2023-03-26T02:49:36.899Z,337.0769
2023-03-26T02:50:38.578Z,340.6923
2023-03-26T02:51:40.210Z,341.7692
2023-03-26T02:52:41.871Z,339.1538
2023-03-26T02:53:43.496Z,334.5385
2023-03-26T02:54:45.154Z,340.3077
2023-03-26T02:55:46.792Z,348.7692
2023-03-26T02:56:48.505Z,345.1538
2023-03-26T02:57:50.096Z,340.1538
2023-03-26T02:58:51.757Z,340.5385
2023-03-26T02:59:53.391Z,342.4615
2023-03-26T03:00:55.143Z,345.0769
2023-03-26T03:01:56.759Z,349.3077
2023-03-26T03:02:58.443Z,344.0769
2023-03-26T03:03:59.984Z,349.3077
2023-03-26T03:05:01.765Z,348.6154
2023-03-26T03:06:03.269Z,351.7692
2023-03-26T03:07:05.069Z,347.0000
2023-03-26T03:08:06.643Z,348.3077
2023-03-26T03:09:08.284Z,353.0769
2023-03-26T03:10:09.973Z,360.9231
2023-03-26T03:11:11.592Z,352.0769
2023-03-26T03:12:13.299Z,353.1538
2023-03-26T03:13:14.941Z,351.2308
2023-03-26T03:14:16.511Z,352.2308
2023-03-26T03:15:18.247Z,357.0769
2023-03-26T03:16:19.921Z,354.3077
2023-03-26T03:17:21.559Z,351.5385
2023-03-26T03:18:23.194Z,354.1538
2023-03-26T03:19:24.745Z,353.1538
2023-03-26T03:20:26.363Z,354.3077
2023-03-26T03:21:28.037Z,353.4615
2023-03-26T03:22:29.689Z,357.6923
2023-03-26T03:23:31.319Z,358.3077
2023-03-26T03:24:32.961Z,365.0000
2023-03-26T03:25:34.636Z,359.0769
2023-03-26T03:26:36.253Z,355.0000
2023-03-26T03:27:37.949Z,356.6154
2023-03-26T03:28:39.566Z,359.3077
2023-03-26T03:29:41.212Z,355.7692
2023-03-26T03:30:42.897Z,358.4615
2023-03-26T03:31:44.520Z,360.1538
2023-03-26T03:32:46.238Z,360.2308
2023-03-26T03:33:47.819Z,358.3077
2023-03-26T03:34:49.438Z,360.0000
2023-03-26T03:35:51.113Z,359.0769
2023-03-26T03:36:52.726Z,356.9231
2023-03-26T03:37:54.415Z,354.0769
2023-03-26T03:38:56.041Z,357.7692
2023-03-26T03:39:57.694Z,358.7692
2023-03-26T03:40:59.324Z,363.8462
2023-03-26T03:42:00.998Z,358.7692
2023-03-26T03:43:02.665Z,360.4615
2023-03-26T03:44:04.300Z,358.1538
2023-03-26T03:45:05.928Z,360.9231
2023-03-26T03:46:07.639Z,357.3846
2023-03-26T03:47:09.211Z,360.1538
2023-03-26T03:48:10.942Z,365.1538
2023-03-26T03:49:12.526Z,362.3846
2023-03-26T03:50:14.200Z,362.3846
2023-03-26T03:51:15.841Z,363.9231
2023-03-26T03:52:17.487Z,362.0769
2023-03-26T03:53:19.144Z,364.7692
2023-03-26T03:54:20.786Z,368.1538
2023-03-26T03:55:22.409Z,359.8462
2023-03-26T03:56:24.101Z,358.0769
2023-03-26T03:57:25.728Z,359.9231
2023-03-26T03:58:27.424Z,360.6154
2023-03-26T03:59:29.004Z,364.8462
2023-03-26T04:00:30.696Z,362.7692
2023-03-26T04:01:32.304Z,365.6154
2023-03-26T04:02:34.076Z,365.7692
2023-03-26T04:03:35.778Z,364.5385
2023-03-26T04:04:37.331Z,362.0000
2023-03-26T04:05:38.920Z,366.0000
2023-03-26T04:06:40.579Z,361.6923
2023-03-26T04:07:42.206Z,359.2308
2023-03-26T04:08:43.995Z,360.3077
2023-03-26T04:09:45.504Z,364.2308
2023-03-26T04:10:47.163Z,366.6923
2023-03-26T04:11:48.802Z,360.7692
2023-03-26T04:12:50.461Z,366.3077
2023-03-26T04:13:52.113Z,367.3846
2023-03-26T04:14:53.756Z,361.4615
2023-03-26T04:15:55.656Z,362.2308
2023-03-26T04:16:57.061Z,365.6923
2023-03-26T04:17:58.760Z,365.5385
2023-03-26T04:19:00.371Z,370.5385
2023-03-26T04:20:01.983Z,365.8462
2023-03-26T04:21:03.638Z,364.6923
2023-03-26T04:22:05.288Z,366.6154
2023-03-26T04:23:06.948Z,368.7692
2023-03-26T04:24:08.597Z,365.1538
2023-03-26T04:25:10.259Z,364.6154
2023-03-26T04:26:11.867Z,371.6154
2023-03-26T04:27:13.527Z,370.0000
2023-03-26T04:28:15.162Z,368.0769
2023-03-26T04:29:16.844Z,360.6923
2023-03-26T04:30:18.456Z,370.3077
2023-03-26T04:31:20.163Z,364.9231
2023-03-26T04:32:21.773Z,368.1538
2023-03-26T04:33:23.438Z,364.9231
2023-03-26T04:34:25.127Z,367.3846
2023-03-26T04:35:26.763Z,372.0769
2023-03-26T04:36:28.390Z,374.3846
2023-03-26T04:37:30.020Z,365.4615
2023-03-26T04:38:31.645Z,369.6154
2023-03-26T04:39:33.352Z,364.0769
2023-03-26T04:40:34.969Z,367.5385
2023-03-26T04:41:36.630Z,370.0000
2023-03-26T04:42:38.253Z,366.6923
2023-03-26T04:43:39.929Z,370.4615
2023-03-26T04:44:41.638Z,365.3077
2023-03-26T04:45:43.209Z,369.1538
2023-03-26T04:46:44.853Z,367.9231
2023-03-26T04:47:46.802Z,370.7692
2023-03-26T04:48:48.141Z,369.8462
2023-03-26T04:49:49.839Z,368.4615
2023-03-26T04:50:51.448Z,368.1538
2023-03-26T04:51:53.095Z,372.8462
2023-03-26T04:52:54.750Z,369.2308
2023-03-26T04:53:56.418Z,370.0769
2023-03-26T04:54:58.060Z,368.3077
2023-03-26T04:55:59.699Z,375.0769
2023-03-26T04:57:01.343Z,371.3846
2023-03-26T04:58:02.986Z,371.4615
2023-03-26T04:59:04.628Z,365.6154
2023-03-26T05:00:06.317Z,364.0000
2023-03-26T05:01:10.318Z,377.6923
2023-03-26T05:02:09.620Z,365.7692
2023-03-26T05:03:11.218Z,378.0000
2023-03-26T05:04:12.893Z,369.6154
2023-03-26T05:05:14.543Z,374.4615
2023-03-26T05:06:16.195Z,367.6154
2023-03-26T05:07:17.819Z,374.6154
2023-03-26T05:08:19.492Z,378.6923
2023-03-26T05:09:21.126Z,377.2308
2023-03-26T05:10:22.869Z,374.0769
2023-03-26T05:11:24.430Z,373.4615
2023-03-26T05:12:26.100Z,372.0000
2023-03-26T05:13:27.713Z,378.6923
2023-03-26T05:14:29.390Z,377.0000
2023-03-26T05:15:31.053Z,371.0769
2023-03-26T05:16:32.706Z,377.2308
2023-03-26T05:17:34.382Z,376.4615
2023-03-26T05:18:36.015Z,379.0000
2023-03-26T05:19:37.624Z,371.2308
2023-03-26T05:20:39.328Z,365.6154
2023-03-26T05:21:40.933Z,372.6154
2023-03-26T05:22:42.592Z,371.6923
2023-03-26T05:23:44.233Z,372.3077
2023-03-26T05:24:45.911Z,371.2308
2023-03-26T05:25:47.567Z,367.6154
2023-03-26T05:26:49.205Z,374.0000
2023-03-26T05:27:50.820Z,371.7692
2023-03-26T05:28:52.733Z,375.3846
2023-03-26T05:29:54.109Z,371.3077
2023-03-26T05:30:55.984Z,378.9231
2023-03-26T05:31:57.432Z,372.3077
2023-03-26T05:32:59.125Z,374.6923
2023-03-26T05:34:00.861Z,373.4615
2023-03-26T05:35:02.352Z,374.3077
2023-03-26T05:36:04.081Z,377.2308
2023-03-26T05:37:05.667Z,374.6923
2023-03-26T05:38:07.317Z,374.0769
2023-03-26T05:39:08.947Z,384.0000
2023-03-26T05:40:10.640Z,375.8462
2023-03-26T05:41:12.285Z,374.0769
2023-03-26T05:42:13.922Z,378.3846
2023-03-26T05:43:15.549Z,376.4615
2023-03-26T05:44:17.234Z,373.8462
2023-03-26T05:45:18.853Z,372.6923
2023-03-26T05:46:20.653Z,369.6923
2023-03-26T05:47:22.143Z,369.9231
2023-03-26T05:48:23.828Z,373.4615
2023-03-26T05:49:25.460Z,379.6923
2023-03-26T05:50:27.129Z,377.6154
2023-03-26T05:51:28.775Z,373.2308
2023-03-26T05:52:30.430Z,378.4615
2023-03-26T05:53:32.066Z,380.2308
2023-03-26T05:54:33.740Z,376.7692
2023-03-26T05:55:35.365Z,375.3846
2023-03-26T05:56:37.175Z,370.6154
2023-03-26T05:57:38.734Z,380.8462
2023-03-26T05:58:40.413Z,380.9231
2023-03-26T05:59:42.029Z,374.5385
2023-03-26T06:00:43.705Z,378.7692
2023-03-26T06:01:45.362Z,377.8462
2023-03-26T06:02:47.091Z,372.4615
2023-03-26T06:03:48.707Z,375.8462
2023-03-26T06:04:50.349Z,380.4615
2023-03-26T06:05:51.933Z,374.8462
2023-03-26T06:06:53.634Z,378.2308
2023-03-26T06:07:55.224Z,375.2308
2023-03-26T06:09:01.910Z,383.1538
2023-03-26T06:09:58.533Z,371.4615
2023-03-26T06:11:00.221Z,380.9231
2023-03-26T06:12:01.874Z,380.0769
2023-03-26T06:13:03.513Z,375.8462
2023-03-26T06:14:05.126Z,373.9231
2023-03-26T06:15:06.807Z,375.3846
2023-03-26T06:16:08.459Z,373.9231
2023-03-26T06:17:10.180Z,377.6154
2023-03-26T06:18:11.791Z,375.3846
2023-03-26T06:19:13.519Z,187.1538
2023-03-26T06:20:15.037Z,0.0000
2023-03-26T06:21:16.704Z,0.0000
2023-03-26T06:22:18.358Z,0.0000
2023-03-26T06:23:19.996Z,0.0000
2023-03-26T06:24:21.630Z,0.0000
2023-03-26T06:25:23.295Z,0.0000
2023-03-26T06:26:24.936Z,0.0000
2023-03-26T06:27:26.625Z,0.0000
2023-03-26T06:28:28.244Z,0.0000
2023-03-26T06:29:29.918Z,0.0000
2023-03-26T06:30:31.551Z,0.0000
2023-03-26T06:31:33.257Z,0.0000
2023-03-26T06:32:34.913Z,0.0000
2023-03-26T06:33:36.517Z,0.0000
2023-03-26T06:34:38.146Z,0.0000
2023-03-26T06:35:39.855Z,0.0000
2023-03-26T06:36:41.465Z,0.0000
2023-03-26T06:37:43.146Z,0.0000
2023-03-26T06:38:44.770Z,0.0000
2023-03-26T06:39:46.429Z,0.0000
2023-03-26T06:40:48.069Z,0.0000
2023-03-26T06:41:49.730Z,0.0000
2023-03-26T06:43:08.643Z,0.0000
2023-03-26T06:43:53.048Z,0.0000
2023-03-26T06:44:54.669Z,11.3846
2023-03-26T06:45:56.357Z,106.3846
2023-03-26T06:46:58.046Z,309.3077
2023-03-26T06:47:59.734Z,230.7692
2023-03-26T06:49:01.283Z,272.0000
2023-03-26T06:50:02.977Z,271.3077
2023-03-26T06:51:04.608Z,317.5385
2023-03-26T06:52:06.274Z,310.0000
2023-03-26T06:53:07.913Z,284.9231
2023-03-26T06:54:09.563Z,274.3846
2023-03-26T06:55:11.220Z,217.8462
2023-03-26T06:56:12.873Z,250.3846
2023-03-26T06:57:14.527Z,223.6923
2023-03-26T06:58:16.210Z,226.7692
2023-03-26T06:59:17.846Z,219.3846
2023-03-26T07:00:19.485Z,257.4615
2023-03-26T07:01:21.165Z,293.4615
2023-03-26T07:02:22.819Z,316.6923
2023-03-26T07:03:24.433Z,301.9231
2023-03-26T07:04:26.110Z,297.3846
2023-03-26T07:05:27.781Z,314.0000
2023-03-26T07:06:29.391Z,395.1538
2023-03-26T07:07:31.047Z,372.7692
2023-03-26T07:08:32.720Z,387.7692
2023-03-26T07:09:34.360Z,389.0000
2023-03-26T07:10:35.987Z,419.0000
2023-03-26T07:11:37.656Z,422.8462
2023-03-26T07:12:39.292Z,433.6923
2023-03-26T07:13:40.978Z,422.7692
2023-03-26T07:14:42.601Z,440.2308
2023-03-26T07:15:44.282Z,435.3846
2023-03-26T07:16:45.903Z,435.1538
2023-03-26T07:17:47.577Z,429.9231
2023-03-26T07:18:49.452Z,472.0000
2023-03-26T07:19:50.874Z,498.0769
2023-03-26T07:20:52.605Z,504.6154
2023-03-26T07:21:54.177Z,512.7692
2023-03-26T07:22:55.801Z,502.3077
2023-03-26T07:23:57.493Z,530.0769
2023-03-26T07:24:59.111Z,515.7692
2023-03-26T07:26:00.786Z,520.0769
2023-03-26T07:27:02.429Z,554.6154
2023-03-26T07:28:04.088Z,605.3077
2023-03-26T07:29:05.728Z,544.2308
2023-03-26T07:30:07.396Z,539.6154
2023-03-26T07:31:09.015Z,554.6923
2023-03-26T07:32:10.680Z,557.4615
2023-03-26T07:33:12.314Z,560.6923
2023-03-26T07:34:14.011Z,553.9231
2023-03-26T07:35:15.629Z,563.3846
2023-03-26T07:36:17.304Z,589.8461
2023-03-26T07:37:18.925Z,595.5385
2023-03-26T07:38:20.592Z,588.8461
2023-03-26T07:39:22.250Z,588.0000
2023-03-26T07:40:23.900Z,618.6154
2023-03-26T07:41:25.537Z,586.0769
2023-03-26T07:42:27.223Z,573.3846
2023-03-26T07:43:28.852Z,577.2308
2023-03-26T07:44:30.525Z,579.1539
2023-03-26T07:45:32.165Z,582.9231
2023-03-26T07:46:33.800Z,581.3077
2023-03-26T07:47:35.478Z,575.3077
2023-03-26T07:48:37.104Z,572.8461
2023-03-26T07:49:38.758Z,570.5385
2023-03-26T07:50:40.410Z,568.5385
2023-03-26T07:51:42.048Z,563.5385
2023-03-26T07:52:43.708Z,570.1539
2023-03-26T07:53:45.341Z,582.4615
2023-03-26T07:54:47.048Z,582.0769
2023-03-26T07:55:48.663Z,581.7692
2023-03-26T07:56:50.386Z,575.4615
2023-03-26T07:57:51.936Z,565.4615
2023-03-26T07:58:53.615Z,554.5385
2023-03-26T07:59:55.266Z,536.6923
2023-03-26T08:00:57.125Z,520.1539
2023-03-26T08:01:58.543Z,511.2308
2023-03-26T08:03:00.286Z,509.7692
2023-03-26T08:04:23.424Z,506.1538
2023-03-26T08:05:03.597Z,509.6923
2023-03-26T08:06:05.134Z,509.0000
2023-03-26T08:07:06.803Z,512.2308
2023-03-26T08:08:08.443Z,522.6923
2023-03-26T08:09:10.109Z,521.9231
2023-03-26T08:10:12.016Z,527.3077
2023-03-26T08:11:13.422Z,522.1539
2023-03-26T08:12:15.039Z,523.7692
2023-03-26T08:13:16.732Z,527.7692
2023-03-26T08:14:18.336Z,527.9231
2023-03-26T08:15:20.037Z,529.6154
2023-03-26T08:16:21.666Z,528.8461
2023-03-26T08:17:23.346Z,530.6154
2023-03-26T08:18:24.942Z,534.1539
2023-03-26T08:19:26.612Z,533.0769
2023-03-26T08:20:28.339Z,526.1539
2023-03-26T08:21:29.918Z,528.3077
2023-03-26T08:22:31.591Z,523.3846
2023-03-26T08:23:33.220Z,527.6923
2023-03-26T08:24:34.893Z,529.4615
2023-03-26T08:25:38.001Z,525.2308
2023-03-26T08:26:38.146Z,525.0000
2023-03-26T08:27:39.809Z,515.9231
2023-03-26T08:28:41.471Z,516.2308
2023-03-26T08:29:43.133Z,515.2308
2023-03-26T08:30:44.812Z,514.5385
2023-03-26T08:31:46.411Z,513.6154
2023-03-26T08:32:48.132Z,515.6154
2023-03-26T08:33:49.731Z,512.6923
2023-03-26T08:34:51.402Z,512.7692
2023-03-26T08:35:53.132Z,511.6923
2023-03-26T08:36:54.721Z,514.3846
2023-03-26T08:37:56.332Z,514.3846
2023-03-26T08:38:58.001Z,516.2308
2023-03-26T08:39:59.643Z,514.7692
2023-03-26T08:41:01.332Z,513.5385
2023-03-26T08:42:02.931Z,512.6923
2023-03-26T08:43:04.602Z,511.1538
2023-03-26T08:44:06.260Z,513.8461
2023-03-26T08:45:07.927Z,514.5385
2023-03-26T08:46:09.597Z,511.6154
2023-03-26T08:47:11.204Z,511.1538
2023-03-26T08:48:12.844Z,512.6923
2023-03-26T08:49:14.501Z,510.8462
2023-03-26T08:50:16.238Z,509.5385
2023-03-26T08:51:17.836Z,513.4615
2023-03-26T08:52:19.446Z,513.5385
2023-03-26T08:53:21.116Z,511.6923
2023-03-26T08:54:22.750Z,512.6923
2023-03-26T08:55:24.423Z,513.0769
2023-03-26T08:56:26.098Z,509.9231
2023-03-26T08:57:27.716Z,512.7692
2023-03-26T08:58:29.352Z,513.2308
2023-03-26T08:59:31.029Z,510.9231
2023-03-26T09:00:32.663Z,511.1538
2023-03-26T09:01:34.393Z,512.0000
2023-03-26T09:02:36.030Z,511.8462
2023-03-26T09:03:37.625Z,508.1538
2023-03-26T09:04:39.272Z,509.4615
2023-03-26T09:05:40.958Z,505.6923
2023-03-26T09:06:42.646Z,511.0000
2023-03-26T09:07:44.293Z,507.6154
2023-03-26T09:08:54.212Z,508.3846
2023-03-26T09:09:47.505Z,508.3846
2023-03-26T09:10:49.154Z,508.2308
2023-03-26T09:11:50.823Z,506.5385
2023-03-26T09:12:52.440Z,507.4615
2023-03-26T09:13:54.132Z,505.9231
2023-03-26T09:14:55.757Z,508.3077
2023-03-26T09:15:57.511Z,504.6154
2023-03-26T09:16:59.080Z,506.6154
2023-03-26T09:18:00.762Z,506.0769
2023-03-26T09:19:02.345Z,504.6154
2023-03-26T09:20:04.026Z,505.4615
2023-03-26T09:21:05.673Z,503.8462
2023-03-26T09:22:07.380Z,500.6154
2023-03-26T09:23:08.960Z,503.4615
2023-03-26T09:24:10.624Z,502.9231
2023-03-26T09:25:12.276Z,501.0000
2023-03-26T09:26:13.929Z,500.7692
2023-03-26T09:27:15.589Z,502.0769
2023-03-26T09:28:17.225Z,500.8462
2023-03-26T09:29:18.855Z,501.0000
2023-03-26T09:30:20.505Z,500.6923
2023-03-26T09:31:22.202Z,498.5385
2023-03-26T09:32:23.942Z,501.9231
2023-03-26T09:33:25.477Z,501.0000
2023-03-26T09:34:27.144Z,498.4615
2023-03-26T09:35:28.764Z,499.0000
2023-03-26T09:36:30.472Z,499.0000
2023-03-26T09:37:32.083Z,499.5385
2023-03-26T09:38:33.741Z,498.1538
2023-03-26T09:39:35.363Z,498.9231
2023-03-26T09:40:37.035Z,498.3077
2023-03-26T09:41:38.658Z,498.5385
2023-03-26T09:42:40.359Z,526.3077
2023-03-26T09:43:41.996Z,248.6923
2023-03-26T09:44:43.628Z,401.0769
2023-03-26T09:45:45.275Z,487.4615
2023-03-26T09:46:46.936Z,476.5385
2023-03-26T09:47:48.648Z,466.5385
2023-03-26T09:48:50.237Z,458.3846
2023-03-26T09:49:51.865Z,459.8462
2023-03-26T09:50:53.719Z,466.6154
2023-03-26T09:51:55.146Z,469.6923
2023-03-26T09:52:56.845Z,474.0000
2023-03-26T09:53:58.447Z,477.2308
2023-03-26T09:55:00.162Z,480.8462
2023-03-26T09:56:01.772Z,481.3846
2023-03-26T09:57:03.465Z,480.6923
2023-03-26T09:58:05.134Z,486.0000
2023-03-26T09:59:06.854Z,486.4615
2023-03-26T10:00:08.423Z,487.2308
2023-03-26T10:01:10.144Z,487.6154
2023-03-26T10:02:11.717Z,481.6154
2023-03-26T10:03:13.465Z,223.3846
2023-03-26T10:04:15.024Z,4.0769
2023-03-26T10:05:16.690Z,0.0000
2023-03-26T10:06:18.313Z,0.0000
2023-03-26T10:07:19.984Z,0.0000
2023-03-26T10:08:21.641Z,0.0000
2023-03-26T10:09:23.290Z,0.0000
2023-03-26T10:10:24.906Z,0.0000
2023-03-26T10:11:26.588Z,0.0000
2023-03-26T10:12:28.222Z,0.0000
2023-03-26T10:13:29.928Z,0.0000
2023-03-26T10:14:31.532Z,0.0000
2023-03-26T10:15:33.198Z,1.9231
2023-03-26T10:16:34.880Z,11.0000
2023-03-26T10:17:37.179Z,23.6154
2023-03-26T10:18:38.166Z,28.3077
2023-03-26T10:19:39.808Z,37.6154
2023-03-26T10:20:41.434Z,54.6923
2023-03-26T10:21:43.096Z,56.6154
2023-03-26T10:22:44.742Z,63.6154
2023-03-26T10:23:46.425Z,77.5385
2023-03-26T10:24:48.044Z,84.6154
2023-03-26T10:25:49.745Z,91.1538
2023-03-26T10:27:08.589Z,95.2308
2023-03-26T10:27:53.014Z,101.5385
2023-03-26T10:28:54.677Z,106.0000
2023-03-26T10:29:56.325Z,108.0769
2023-03-26T10:30:58.118Z,115.1538
2023-03-26T10:31:59.616Z,116.0000
2023-03-26T10:33:01.324Z,128.8462
2023-03-26T10:34:02.959Z,127.4615
2023-03-26T10:35:04.555Z,133.3846
2023-03-26T10:36:06.251Z,129.4615
2023-03-26T10:37:07.851Z,135.3077
2023-03-26T10:38:09.527Z,142.8462
2023-03-26T10:39:11.183Z,137.3077
2023-03-26T10:40:12.830Z,141.1538
2023-03-26T10:41:14.491Z,145.2308
2023-03-26T10:42:16.123Z,148.7692
2023-03-26T10:43:17.763Z,150.3077
2023-03-26T10:44:19.508Z,152.6154
2023-03-26T10:45:21.096Z,160.3077
2023-03-26T10:46:22.772Z,164.6154
2023-03-26T10:47:24.432Z,167.6923
2023-03-26T10:48:26.054Z,171.1538
2023-03-26T10:49:27.750Z,168.8462
2023-03-26T10:50:29.362Z,171.6154
2023-03-26T10:51:30.972Z,175.6923
2023-03-26T10:52:32.670Z,174.3846
2023-03-26T10:53:34.295Z,180.9231
2023-03-26T10:54:35.999Z,180.3077
2023-03-26T10:55:37.596Z,187.2308
2023-03-26T10:56:39.290Z,190.4615
2023-03-26T10:57:40.896Z,193.0769
2023-03-26T10:58:48.590Z,194.6923
2023-03-26T10:59:44.247Z,198.8462
2023-03-26T11:00:45.892Z,205.4615
2023-03-26T11:01:47.524Z,201.8462
2023-03-26T11:02:49.225Z,206.0000
2023-03-26T11:03:50.827Z,209.8462
2023-03-26T11:04:52.517Z,212.2308
2023-03-26T11:05:54.191Z,216.9231
2023-03-26T11:06:55.800Z,212.8462
2023-03-26T11:07:57.430Z,213.0000
2023-03-26T11:08:59.136Z,216.4615
2023-03-26T11:10:00.746Z,219.1538
2023-03-26T11:11:02.395Z,231.3077
2023-03-26T11:12:26.223Z,238.0769
2023-03-26T11:13:05.691Z,244.5385
2023-03-26T11:14:07.339Z,249.7692
2023-03-26T11:15:09.106Z,245.4615
2023-03-26T11:16:10.642Z,262.4615
2023-03-26T11:17:14.915Z,264.7692
2023-03-26T11:18:13.963Z,255.7692
2023-03-26T11:19:15.591Z,266.4615
2023-03-26T11:20:17.292Z,292.3846
2023-03-26T11:21:20.635Z,279.4615
2023-03-26T11:22:20.527Z,283.8462
2023-03-26T11:23:22.211Z,285.7692
2023-03-26T11:24:23.812Z,278.5385
2023-03-26T11:25:25.532Z,279.9231
2023-03-26T11:26:27.137Z,278.7692
2023-03-26T11:27:28.792Z,281.1538
2023-03-26T11:28:30.446Z,288.9231
2023-03-26T11:29:33.494Z,308.0000
2023-03-26T11:30:33.767Z,308.9231
2023-03-26T11:31:35.433Z,308.2308
2023-03-26T11:32:37.070Z,305.8462
2023-03-26T11:33:38.689Z,296.3077
2023-03-26T11:34:40.347Z,292.9231
2023-03-26T11:35:42.013Z,299.5385
2023-03-26T11:36:43.630Z,308.0000
2023-03-26T11:37:45.308Z,312.4615
2023-03-26T11:38:46.965Z,311.7692
2023-03-26T11:39:48.584Z,312.0000
2023-03-26T11:40:50.249Z,312.5385
2023-03-26T11:41:51.901Z,312.6154
2023-03-26T11:42:53.540Z,307.5385
2023-03-26T11:43:55.217Z,308.6154
2023-03-26T11:44:56.861Z,309.5385
2023-03-26T11:45:58.550Z,308.8462
2023-03-26T11:47:00.126Z,307.0000
2023-03-26T11:48:01.854Z,306.0000
2023-03-26T11:49:03.407Z,307.3846
2023-03-26T11:50:05.143Z,307.7692
2023-03-26T11:51:06.783Z,309.9231
2023-03-26T11:52:08.393Z,312.0769
2023-03-26T11:53:10.039Z,311.3846
2023-03-26T11:54:11.714Z,311.3846
2023-03-26T11:55:13.343Z,314.2308
2023-03-26T11:56:15.174Z,312.3846
2023-03-26T11:57:16.694Z,314.6154
2023-03-26T11:58:18.307Z,314.6154
2023-03-26T11:59:21.650Z,317.2308
2023-03-26T12:00:21.607Z,315.2308
2023-03-26T12:01:23.250Z,317.0769
2023-03-26T12:02:25.076Z,316.6923
2023-03-26T12:03:26.551Z,319.3077
2023-03-26T12:04:30.604Z,318.3077
2023-03-26T12:05:29.840Z,318.6923